This is the latest recevied weather packets stored in our database for station/object KF4CQ. If no packets are shown the sender has not sent any weather packets the latest 1 day(s).
| Time | Temp. | Humidity | Pressure | Rain* | Wind** | Luminosity | Snow |
|---|---|---|---|---|---|---|---|
| 1778008308 | 29.44° C | 49% | 1016.4 hPa | 0 mm | 0.45 m/s, 104° | 433 W/m² | - |
| 1778008004 | 30° C | 48% | 1016.5 hPa | 0 mm | 0.89 m/s, 34° | 265 W/m² | - |
| 1778007704 | 30.56° C | 48% | 1016.6 hPa | 0 mm | 1.79 m/s, 46° | 283 W/m² | - |
| 1778007401 | 31.67° C | 45% | 1016.5 hPa | 0 mm | 0 m/s | 287 W/m² | - |
| 1778007097 | 30.56° C | 47% | 1016.7 hPa | 0 mm | 0.45 m/s, 91° | 545 W/m² | - |
| 1778006794 | 29.44° C | 49% | 1016.9 hPa | 0 mm | 0.89 m/s, 59° | 600 W/m² | - |
| 1778006491 | 30° C | 47% | 1016.8 hPa | 0 mm | 1.79 m/s, 151° | 665 W/m² | - |
| 1778006188 | 30.56° C | 47% | 1016.8 hPa | 0 mm | 0.89 m/s, 122° | 423 W/m² | - |
| 1778005886 | 30.56° C | 45% | 1016.9 hPa | 0 mm | 0.45 m/s, 80° | 376 W/m² | - |
| 1778005581 | 31.11° C | 46% | 1017 hPa | 0 mm | 0.45 m/s, 98° | 238 W/m² | - |
| 1778005278 | 30.56° C | 47% | 1017 hPa | 0 mm | 0.45 m/s, 152° | 281 W/m² | - |
| 1778004975 | 29.44° C | 48% | 1017 hPa | 0 mm | 0 m/s | 660 W/m² | - |
| 1778004672 | 28.33° C | 50% | 1017.1 hPa | 0 mm | 0 m/s | 192 W/m² | - |
| 1778004368 | 27.78° C | 53% | 1017.4 hPa | 0 mm | 1.79 m/s, 194° | 171 W/m² | - |
| 1778004066 | 27.78° C | 53% | 1017.1 hPa | 0 mm | 1.34 m/s, 125° | 152 W/m² | - |
| 1778003761 | 27.78° C | 54% | 1017.3 hPa | 0 mm | 1.34 m/s, 209° | 174 W/m² | - |
| 1778003458 | 27.78° C | 54% | 1017.4 hPa | 0 mm | 0.45 m/s, 91° | 187 W/m² | - |
| 1778003155 | 27.78° C | 54% | 1017.5 hPa | 0 mm | 1.79 m/s, 128° | 179 W/m² | - |
| 1778002851 | 28.33° C | 53% | 1017.5 hPa | 0 mm | 1.34 m/s, 98° | 169 W/m² | - |
| 1778002548 | 28.33° C | 53% | 1017.5 hPa | 0 mm | 0.45 m/s, 63° | 185 W/m² | - |
| 1778002245 | 28.89° C | 51% | 1017.5 hPa | 0 mm | 0.45 m/s, 81° | 191 W/m² | - |
| 1778001942 | 28.89° C | 50% | 1017.3 hPa | 0 mm | 0.89 m/s, 95° | 245 W/m² | - |
| 1778001639 | 29.44° C | 50% | 1017.6 hPa | 0 mm | 0.45 m/s, 70° | 816 W/m² | - |
| 1778001333 | 30° C | 49% | 1017.6 hPa | 0 mm | 0 m/s | 802 W/m² | - |
| 1778001031 | 30° C | 51% | 1017.7 hPa | 0 mm | 0.89 m/s, 46° | 796 W/m² | - |
* Rain latest hour (hover to see other rain measurements)
** Current wind speed in m/s (hover to see current wind gust speed)